Colinas de Plata, Puerto Rico
Current Conditions -  °F | °C
As of 6:56 PM on Saturday 22 Nov 2014 (Local Time) from TJSJ Reporting Station
Broken Clouds Broken Clouds  
Wind Chill: 77°   Ceiling: 4100
Heat Index: 78°   Visibility: 10mi
Dew Point: 77°   Wind: 3mph
Humidity: 99%   Direction: 120°ESE
Pressure: 29.98"   Gusts: NA
Location:  18.3893°N, 66.2481°W
Report Text: TJSJ 222256Z 12003KT 10SM SCT025 SCT032 BKN041 25/25 A2998 RMK AO2 SLP152 T02500249 $
Loading
Personal Weather Stations






























Interactive Weather Map New forecast layout! Learn more

10-Day Weather Forecast

Advertisements
Track Severe Weather on mobile